Time;durP1;ratioP1;P1;durP2;ratioP2;P2;SDS_P1;SDS_P2;PMS_P1;PMS_P2;Temp;Humidity;BMP_temperature;BMP_pressure;BME280_temperature;BME280_humidity;BME280_pressure;Samples;Min_cycle;Max_cycle;Signal;HPM_P1;HPM_P2
2023/09/13 00:00:17;;;;;;;1.73;1.60;;;;;;;18.80;100.00;99614.50;4985809;28;20505;-85
2023/09/13 00:02:43;;;;;;;3.40;1.20;;;;;;;18.79;100.00;99607.31;4946800;28;20049;-85
2023/09/13 00:05:09;;;;;;;2.40;1.92;;;;;;;18.75;100.00;99608.84;4952488;28;20031;-86
2023/09/13 00:07:37;;;;;;;1.40;1.33;;;;;;;18.81;100.00;99624.44;4961293;28;20043;-85
2023/09/13 00:10:03;;;;;;;1.83;1.73;;;;;;;18.80;100.00;99616.53;4961450;28;20046;-85
2023/09/13 00:12:29;;;;;;;1.75;1.45;;;;;;;18.74;100.00;99612.91;4985489;28;20038;-85
2023/09/13 00:14:54;;;;;;;3.28;2.03;;;;;;;18.63;100.00;99608.00;4965413;28;20049;-84
2023/09/13 00:17:21;;;;;;;1.15;1.05;;;;;;;18.63;100.00;99603.16;4968169;28;20042;-85
2023/09/13 00:19:46;;;;;;;1.50;1.02;;;;;;;18.61;100.00;99614.13;4962879;28;20093;-84
2023/09/13 00:22:12;;;;;;;1.33;1.23;;;;;;;18.42;100.00;99582.06;4987488;28;20473;-85
2023/09/13 00:24:38;;;;;;;1.92;1.70;;;;;;;18.60;100.00;99606.22;4981770;28;20039;-85
2023/09/13 00:27:04;;;;;;;3.20;2.50;;;;;;;18.52;100.00;99591.84;4970017;28;20141;-84
2023/09/13 00:29:32;;;;;;;1.65;1.17;;;;;;;18.53;100.00;99612.28;4967250;28;20506;-84
2023/09/13 00:31:58;;;;;;;1.67;1.35;;;;;;;18.57;100.00;99605.16;4968546;28;20441;-85
2023/09/13 00:34:24;;;;;;;1.30;1.20;;;;;;;18.51;100.00;99607.16;4980153;28;20043;-85
2023/09/13 00:36:49;;;;;;;2.20;0.57;;;;;;;18.50;100.00;99602.81;4968090;28;20034;-85
2023/09/13 00:39:15;;;;;;;2.10;1.58;;;;;;;18.49;100.00;99609.69;4946809;28;20043;-85
2023/09/13 00:41:40;;;;;;;1.38;1.02;;;;;;;18.43;100.00;99602.50;4959897;28;20050;-85
2023/09/13 00:44:06;;;;;;;1.55;1.35;;;;;;;18.43;100.00;99600.47;4990806;28;20042;-85
2023/09/13 00:46:32;;;;;;;3.03;1.63;;;;;;;18.45;100.00;99600.72;4970550;28;20562;-85
2023/09/13 00:48:58;;;;;;;2.13;1.95;;;;;;;18.38;100.00;99595.59;4946318;28;20077;-85
2023/09/13 00:51:24;;;;;;;1.95;1.85;;;;;;;18.36;100.00;99597.38;4954947;28;20043;-84
2023/09/13 00:53:50;;;;;;;1.48;1.27;;;;;;;18.30;100.00;99588.91;4956435;28;20049;-85
2023/09/13 00:56:16;;;;;;;2.22;1.95;;;;;;;18.32;100.00;99600.38;4969796;28;20046;-84
2023/09/13 00:58:42;;;;;;;2.22;1.88;;;;;;;18.24;100.00;99590.13;4950589;28;20065;-85
2023/09/13 01:01:09;;;;;;;3.65;2.22;;;;;;;18.23;100.00;99591.41;4986649;28;20061;-84
2023/09/13 01:03:37;;;;;;;0.77;0.77;;;;;;;18.25;100.00;99595.22;4979534;28;20065;-85
2023/09/13 01:06:02;;;;;;;2.17;1.73;;;;;;;18.29;100.00;99590.16;4972814;28;20062;-85
2023/09/13 01:08:28;;;;;;;0.98;0.98;;;;;;;18.29;100.00;99600.63;4974520;28;20109;-85
2023/09/13 01:10:54;;;;;;;1.95;1.58;;;;;;;18.28;100.00;99594.22;4955434;28;20047;-85
2023/09/13 01:13:19;;;;;;;2.40;1.58;;;;;;;18.15;100.00;99585.47;4980676;28;20042;-85
2023/09/13 01:16:03;;;;;;;1.52;1.42;;;;;;;18.25;100.00;99598.03;4978048;28;20388;-85
2023/09/13 01:18:36;;;;;;;;;;;;;;;18.20;100.00;99592.41;4988630;28;20046;-85
2023/09/13 01:21:32;;;;;;;1.35;1.25;;;;;;;18.16;100.00;99584.19;4954267;28;20457;-85
2023/09/13 01:24:03;;;;;;;2.83;2.47;;;;;;;18.20;100.00;99598.03;4948892;28;20042;-85
2023/09/13 01:26:56;;;;;;;2.47;1.92;;;;;;;18.18;100.00;99584.47;4967822;28;20074;-85
2023/09/13 01:29:22;;;;;;;1.80;1.65;;;;;;;18.15;100.00;99591.09;4991491;28;20050;-84
2023/09/13 01:31:48;;;;;;;3.40;2.28;;;;;;;18.13;100.00;99594.38;4971264;28;20099;-84
2023/09/13 01:34:14;;;;;;;1.15;1.05;;;;;;;18.10;100.00;99594.63;4954574;28;20042;-85
2023/09/13 01:36:41;;;;;;;1.60;1.13;;;;;;;18.07;100.00;99595.63;4967048;28;20071;-84
2023/09/13 01:39:06;;;;;;;1.83;1.35;;;;;;;17.96;100.00;99579.47;4969526;28;20046;-84
2023/09/13 01:41:38;;;;;;;1.58;1.40;;;;;;;18.03;100.00;99595.88;4941529;28;20042;-84
2023/09/13 01:44:04;;;;;;;2.45;1.60;;;;;;;18.04;100.00;99599.41;4954437;28;20061;-84
2023/09/13 01:46:34;;;;;;;1.92;1.83;;;;;;;18.04;100.00;99602.22;4967429;28;20066;-84
2023/09/13 01:49:01;;;;;;;2.72;1.02;;;;;;;18.03;100.00;99607.09;4962313;28;20046;-84
2023/09/13 01:51:27;;;;;;;1.92;1.75;;;;;;;18.00;100.00;99607.28;4955196;28;20089;-84
2023/09/13 01:53:56;;;;;;;2.10;1.90;;;;;;;17.83;100.00;99581.16;4948717;28;20039;-84
2023/09/13 01:56:22;;;;;;;1.90;1.80;;;;;;;17.92;100.00;99592.19;4963991;28;20054;-84
2023/09/13 01:58:48;;;;;;;0.80;0.75;;;;;;;17.90;100.00;99592.69;4954847;28;20058;-84
2023/09/13 02:01:15;;;;;;;4.10;1.83;;;;;;;17.94;100.00;99593.22;4958688;28;20093;-85
2023/09/13 02:03:40;;;;;;;2.58;1.70;;;;;;;17.88;100.00;99603.63;4972020;28;20034;-84
2023/09/13 02:06:06;;;;;;;1.77;1.63;;;;;;;17.75;100.00;99596.91;4967375;28;20049;-84
2023/09/13 02:08:32;;;;;;;2.40;2.17;;;;;;;17.73;100.00;99603.00;4979664;28;20514;-84
2023/09/13 02:10:57;;;;;;;3.72;2.33;;;;;;;17.69;100.00;99600.41;4969808;28;20187;-84
2023/09/13 02:13:24;;;;;;;3.80;2.13;;;;;;;17.46;100.00;99578.25;4953255;28;20035;-84
2023/09/13 02:15:50;;;;;;;0.98;0.85;;;;;;;17.55;100.00;99584.44;4950642;28;20050;-84
2023/09/13 02:18:16;;;;;;;3.15;2.15;;;;;;;17.57;100.00;99601.59;4962734;28;20495;-84
2023/09/13 02:20:44;;;;;;;1.42;1.30;;;;;;;17.57;100.00;99593.16;4970697;28;20422;-84
2023/09/13 02:23:09;;;;;;;1.25;1.23;;;;;;;17.55;100.00;99590.03;4948999;28;20495;-84
2023/09/13 02:25:36;;;;;;;11.48;2.63;;;;;;;17.56;100.00;99594.38;4981668;28;20034;-84
2023/09/13 02:28:03;;;;;;;1.77;1.25;;;;;;;17.52;100.00;99590.28;4972189;28;20050;-84
2023/09/13 02:30:29;;;;;;;1.05;0.93;;;;;;;17.46;100.00;99573.41;4969560;28;20060;-84
2023/09/13 02:32:55;;;;;;;2.13;1.77;;;;;;;17.44;100.00;99589.16;4966846;28;20045;-84
2023/09/13 02:35:21;;;;;;;2.15;1.92;;;;;;;17.38;100.00;99575.13;4974868;28;20070;-85
2023/09/13 02:37:48;;;;;;;1.23;1.13;;;;;;;17.38;100.00;99586.31;4960878;28;20129;-84
2023/09/13 02:40:13;;;;;;;1.92;1.65;;;;;;;17.34;100.00;99597.00;4971931;28;20062;-84
2023/09/13 02:42:39;;;;;;;2.47;2.20;;;;;;;17.41;100.00;99599.34;4973327;28;20196;-84
2023/09/13 02:45:05;;;;;;;2.97;2.05;;;;;;;17.39;100.00;99589.91;4971196;28;20032;-84
2023/09/13 02:47:31;;;;;;;2.40;2.20;;;;;;;17.46;100.00;99598.66;4971625;28;20050;-84
2023/09/13 02:49:56;;;;;;;3.75;1.58;;;;;;;17.42;100.00;99603.69;4969957;28;20477;-84
2023/09/13 02:52:30;;;;;;;3.92;2.55;;;;;;;17.45;100.00;99607.53;4985162;28;20089;-85
2023/09/13 02:54:57;;;;;;;1.02;0.95;;;;;;;17.45;100.00;99605.50;4972324;28;20038;-84
2023/09/13 02:57:22;;;;;;;1.73;1.58;;;;;;;17.38;100.00;99599.56;4968076;28;20129;-84
2023/09/13 02:59:48;;;;;;;2.15;1.95;;;;;;;17.38;100.00;99605.94;4967416;28;20534;-84
2023/09/13 03:02:13;;;;;;;1.23;1.02;;;;;;;17.39;100.00;99607.47;4949574;28;20514;-84
2023/09/13 03:04:40;;;;;;;8.15;2.03;;;;;;;17.46;100.00;99621.06;4951340;28;20519;-84
2023/09/13 03:07:06;;;;;;;2.05;1.75;;;;;;;17.42;100.00;99598.09;4967476;28;20049;-84
2023/09/13 03:09:31;;;;;;;2.03;1.65;;;;;;;17.27;100.00;99584.16;4955567;28;20045;-84
2023/09/13 03:11:57;;;;;;;2.45;2.05;;;;;;;17.27;100.00;99589.78;4971384;28;20034;-84
2023/09/13 03:14:23;;;;;;;1.58;1.48;;;;;;;17.34;100.00;99607.44;4971576;28;20133;-84
2023/09/13 03:16:48;;;;;;;2.13;1.92;;;;;;;17.27;100.00;99593.84;4965780;28;20520;-84
2023/09/13 03:19:14;;;;;;;0.82;0.82;;;;;;;17.30;100.00;99601.28;4966335;28;20101;-84
2023/09/13 03:21:42;;;;;;;2.15;1.70;;;;;;;17.22;100.00;99600.94;4968479;28;20085;-84
2023/09/13 03:24:07;;;;;;;2.83;2.00;;;;;;;17.15;100.00;99590.13;4956770;28;20045;-85
2023/09/13 03:26:33;;;;;;;1.35;1.25;;;;;;;17.13;100.00;99601.09;4934165;28;20042;-85
2023/09/13 03:28:59;;;;;;;2.03;1.67;;;;;;;17.13;100.00;99601.09;4970234;28;20042;-85
2023/09/13 03:31:26;;;;;;;2.78;2.05;;;;;;;17.08;100.00;99584.97;4971936;28;20413;-85
2023/09/13 03:33:54;;;;;;;2.45;2.20;;;;;;;17.06;100.00;99604.31;4944270;28;20053;-85
2023/09/13 03:36:20;;;;;;;2.65;2.28;;;;;;;17.08;100.00;99610.97;4966009;28;20406;-85
2023/09/13 03:38:49;;;;;;;1.88;1.58;;;;;;;17.01;100.00;99599.41;4948536;28;20038;-85
2023/09/13 03:41:19;;;;;;;1.50;1.40;;;;;;;17.02;100.00;99598.16;4960176;28;20491;-85
2023/09/13 03:43:45;;;;;;;2.50;1.42;;;;;;;16.97;100.00;99599.63;4961988;28;20062;-85
2023/09/13 03:46:10;;;;;;;2.60;1.95;;;;;;;16.84;100.00;99581.63;4937000;28;20589;-84
2023/09/13 03:48:38;;;;;;;3.47;3.22;;;;;;;16.93;100.00;99601.09;4939201;28;20034;-84
2023/09/13 03:51:04;;;;;;;1.73;1.55;;;;;;;16.93;100.00;99606.69;4938893;28;20375;-85
2023/09/13 03:53:30;;;;;;;2.20;1.80;;;;;;;16.98;100.00;99603.97;4979910;28;20053;-84
2023/09/13 03:55:57;;;;;;;1.80;1.65;;;;;;;16.95;100.00;99592.97;4951009;28;20054;-85
2023/09/13 03:58:23;;;;;;;1.33;1.23;;;;;;;16.87;100.00;99597.44;4954406;28;20046;-84
2023/09/13 04:00:49;;;;;;;1.23;1.13;;;;;;;16.83;100.00;99611.66;4950419;28;20037;-85
2023/09/13 04:03:15;;;;;;;1.17;0.95;;;;;;;16.84;100.00;99609.63;4943383;28;20058;-84
2023/09/13 04:05:41;;;;;;;1.40;1.17;;;;;;;16.88;100.00;99613.00;4947519;28;20133;-85
2023/09/13 04:08:06;;;;;;;2.00;1.80;;;;;;;16.86;100.00;99595.94;4984489;28;20085;-85
2023/09/13 04:10:32;;;;;;;2.08;1.88;;;;;;;16.86;100.00;99596.69;4943800;28;20116;-85
2023/09/13 04:12:57;;;;;;;2.22;1.83;;;;;;;16.84;100.00;99598.44;4980359;28;20117;-85
2023/09/13 04:15:23;;;;;;;1.42;1.33;;;;;;;16.77;100.00;99594.03;4972817;28;20050;-85
2023/09/13 04:17:49;;;;;;;1.90;1.70;;;;;;;16.83;100.00;99596.88;4964225;28;20041;-85
2023/09/13 04:20:16;;;;;;;1.33;1.23;;;;;;;16.71;100.00;99585.56;4980256;28;20038;-85
2023/09/13 04:22:42;;;;;;;2.30;2.10;;;;;;;16.65;100.00;99578.34;4965868;28;20428;-85
2023/09/13 04:25:08;;;;;;;1.90;1.48;;;;;;;16.69;100.00;99588.09;4968975;28;20051;-85
2023/09/13 04:27:33;;;;;;;2.58;2.33;;;;;;;16.74;100.00;99590.16;4952611;28;20043;-85
2023/09/13 04:29:59;;;;;;;2.33;1.80;;;;;;;16.59;100.00;99567.06;4986014;28;20062;-84
2023/09/13 04:32:26;;;;;;;6.28;2.85;;;;;;;16.68;100.00;99564.13;4958648;28;20055;-84
2023/09/13 04:34:53;;;;;;;1.33;1.15;;;;;;;16.71;100.00;99579.94;4965484;28;20129;-85
2023/09/13 04:37:19;;;;;;;3.30;2.42;;;;;;;16.77;100.00;99589.22;4969347;28;20528;-85
2023/09/13 04:39:45;;;;;;;1.48;1.40;;;;;;;16.74;100.00;99584.56;4974025;28;20570;-85
2023/09/13 04:42:14;;;;;;;1.98;1.52;;;;;;;16.78;100.00;99593.53;4955569;28;20128;-85
2023/09/13 04:44:39;;;;;;;2.10;1.90;;;;;;;16.82;100.00;99589.78;4951189;28;20056;-85
2023/09/13 04:47:05;;;;;;;3.83;3.13;;;;;;;16.73;100.00;99588.66;4963335;28;20062;-85
2023/09/13 04:49:31;;;;;;;1.52;1.42;;;;;;;16.70;100.00;99600.81;4952533;28;20042;-85
2023/09/13 04:51:57;;;;;;;2.70;1.90;;;;;;;16.72;100.00;99603.91;4958164;28;20053;-85
2023/09/13 04:54:23;;;;;;;1.40;1.15;;;;;;;16.71;100.00;99601.59;4966756;28;20026;-85
2023/09/13 04:56:50;;;;;;;2.85;2.65;;;;;;;16.69;100.00;99599.28;4951512;28;20049;-85
2023/09/13 04:59:16;;;;;;;3.63;2.38;;;;;;;16.68;100.00;99603.34;4959921;28;20062;-85
2023/09/13 05:01:42;;;;;;;2.33;2.05;;;;;;;16.65;100.00;99598.72;4948617;28;20070;-84
2023/09/13 05:04:09;;;;;;;2.13;1.92;;;;;;;16.58;100.00;99598.38;4945741;28;20116;-85
2023/09/13 05:06:35;;;;;;;1.17;1.10;;;;;;;16.56;100.00;99601.63;4962169;28;20482;-86
2023/09/13 05:09:01;;;;;;;3.47;2.58;;;;;;;16.47;100.00;99593.34;4960103;28;20104;-85
2023/09/13 05:11:26;;;;;;;3.95;2.85;;;;;;;16.40;100.00;99576.97;4964595;28;20044;-85
2023/09/13 05:14:12;;;;;;;1.67;1.00;;;;;;;16.60;100.00;99605.00;4961538;28;20058;-85
2023/09/13 05:16:37;;;;;;;1.67;1.58;;;;;;;16.57;100.00;99597.59;4977554;28;20054;-86
2023/09/13 05:19:03;;;;;;;2.15;1.88;;;;;;;16.67;100.00;99601.78;4947957;28;20047;-85
2023/09/13 05:21:28;;;;;;;1.55;1.45;;;;;;;16.59;100.00;99583.09;4980571;28;20034;-86
2023/09/13 05:23:54;;;;;;;1.27;1.05;;;;;;;16.73;100.00;99604.69;4984385;28;20032;-85
2023/09/13 05:26:19;;;;;;;3.17;2.72;;;;;;;16.84;100.00;99615.25;4984302;28;20042;-85
2023/09/13 05:28:45;;;;;;;3.10;2.22;;;;;;;16.86;100.00;99612.72;4986964;28;20077;-85
2023/09/13 05:31:11;;;;;;;2.78;2.58;;;;;;;17.00;100.00;99606.28;4953145;28;21300;-85
2023/09/13 05:33:38;;;;;;;2.92;2.47;;;;;;;17.06;100.00;99630.31;4952250;28;20037;-85
2023/09/13 05:36:10;;;;;;;2.53;1.98;;;;;;;17.16;100.00;99628.88;4969920;28;20038;-86
2023/09/13 05:38:36;;;;;;;3.28;2.03;;;;;;;17.22;100.00;99628.97;4962695;28;20063;-87
2023/09/13 05:41:19;;;;;;;3.10;2.15;;;;;;;17.34;100.00;99630.63;4952337;28;20501;-87
2023/09/13 05:43:45;;;;;;;1.50;1.40;;;;;;;17.38;100.00;99625.56;4963039;28;20043;-87
2023/09/13 05:46:11;;;;;;;0.73;0.73;;;;;;;17.49;100.00;99633.31;4947693;28;20458;-86
2023/09/13 05:48:37;;;;;;;3.03;1.33;;;;;;;17.51;100.00;99625.94;4959440;28;20039;-87
2023/09/13 05:51:03;;;;;;;1.38;1.30;;;;;;;17.57;100.00;99645.66;4956654;28;20396;-87
2023/09/13 05:53:30;;;;;;;1.35;1.25;;;;;;;17.56;100.00;99619.63;4969137;28;20046;-87
2023/09/13 05:55:55;;;;;;;0.82;0.77;;;;;;;17.61;100.00;99649.81;4957600;28;20042;-87
2023/09/13 05:58:21;;;;;;;1.13;1.10;;;;;;;17.56;100.00;99646.91;4973662;28;20116;-86
2023/09/13 06:00:48;;;;;;;3.38;2.35;;;;;;;17.54;100.00;99649.44;4973629;28;20072;-87
2023/09/13 06:03:15;;;;;;;1.88;1.77;;;;;;;17.67;100.00;99661.84;4954001;28;20398;-87
2023/09/13 06:05:41;;;;;;;3.22;2.88;;;;;;;17.87;100.00;99655.41;4956415;28;20049;-87
2023/09/13 06:08:07;;;;;;;2.80;2.60;;;;;;;17.98;100.00;99649.13;4957167;28;20047;-87
2023/09/13 06:10:32;;;;;;;1.70;1.60;;;;;;;18.05;100.00;99631.84;4954557;28;20714;-88
2023/09/13 06:12:58;;;;;;;1.02;0.90;;;;;;;18.28;100.00;99650.38;4985702;28;20129;-87
2023/09/13 06:15:23;;;;;;;1.77;1.50;;;;;;;18.32;100.00;99622.84;4990458;28;20046;-87
2023/09/13 06:17:51;;;;;;;2.95;2.45;;;;;;;18.56;100.00;99636.59;4956947;28;20494;-87
2023/09/13 06:20:17;;;;;;;2.22;1.65;;;;;;;18.80;100.00;99653.84;4941696;28;20047;-87
2023/09/13 06:22:43;;;;;;;2.28;1.65;;;;;;;18.80;100.00;99647.44;4957212;28;20034;-87
2023/09/13 06:25:08;;;;;;;3.33;2.40;;;;;;;19.03;100.00;99657.50;4990095;28;20039;-87
2023/09/13 06:27:34;;;;;;;1.63;1.50;;;;;;;18.95;100.00;99628.34;4957806;28;20054;-87
2023/09/13 06:29:59;;;;;;;2.08;1.58;;;;;;;19.45;100.00;99668.69;4957302;28;20035;-86
2023/09/13 06:32:26;;;;;;;1.42;1.33;;;;;;;19.68;100.00;99666.72;4973023;28;20045;-87
2023/09/13 06:34:54;;;;;;;2.70;1.90;;;;;;;19.89;100.00;99662.41;4974851;28;20038;-87
2023/09/13 06:37:20;;;;;;;3.67;3.10;;;;;;;19.92;100.00;99652.94;4957628;28;20050;-87
2023/09/13 06:39:46;;;;;;;1.98;1.73;;;;;;;20.06;100.00;99665.19;4961926;28;20047;-87
2023/09/13 06:42:12;;;;;;;2.85;2.10;;;;;;;20.25;100.00;99652.16;4990910;28;20034;-87
2023/09/13 06:44:38;;;;;;;3.00;1.98;;;;;;;20.38;100.00;99657.31;4973741;28;20046;-87
2023/09/13 06:47:03;;;;;;;3.00;2.65;;;;;;;20.64;100.00;99654.94;4988291;28;20054;-87
2023/09/13 06:49:29;;;;;;;0.77;0.77;;;;;;;20.77;100.00;99662.88;4972252;28;20049;-87
2023/09/13 06:51:54;;;;;;;2.15;1.95;;;;;;;20.75;100.00;99666.19;4956851;28;20038;-87
2023/09/13 06:54:20;;;;;;;2.25;2.00;;;;;;;20.80;100.00;99654.16;4973651;28;20040;-88
2023/09/13 06:56:45;;;;;;;1.67;1.50;;;;;;;20.91;100.00;99654.09;4956879;28;20050;-87
2023/09/13 06:59:11;;;;;;;1.65;1.05;;;;;;;21.08;100.00;99654.06;4956719;28;20041;-87
2023/09/13 07:01:38;;;;;;;1.58;1.48;;;;;;;21.24;100.00;99667.34;4967208;28;20046;-88
2023/09/13 07:04:04;;;;;;;1.55;1.17;;;;;;;21.39;100.00;99656.50;4956388;28;20026;-87
2023/09/13 07:06:30;;;;;;;2.40;2.20;;;;;;;21.54;100.00;99678.00;4971757;28;20461;-88
2023/09/13 07:08:55;;;;;;;1.42;1.05;;;;;;;21.40;100.00;99674.97;4971736;28;20156;-88
2023/09/13 07:11:22;;;;;;;2.08;1.90;;;;;;;21.73;100.00;99681.72;4941316;28;20475;-88
2023/09/13 07:13:47;;;;;;;3.22;1.95;;;;;;;21.96;100.00;99680.31;4940759;28;20042;-88
2023/09/13 07:16:13;;;;;;;2.20;2.00;;;;;;;22.04;100.00;99695.41;4951881;28;20584;-88
2023/09/13 07:18:39;;;;;;;2.08;1.77;;;;;;;22.09;100.00;99683.28;4955402;28;20573;-88
2023/09/13 07:21:04;;;;;;;2.30;1.67;;;;;;;22.01;100.00;99676.69;4956017;28;20069;-88
2023/09/13 07:23:30;;;;;;;1.42;1.13;;;;;;;22.28;100.00;99689.06;4972082;28;20049;-87
2023/09/13 07:25:55;;;;;;;2.75;1.83;;;;;;;22.64;100.00;99692.59;4972612;28;20109;-88
2023/09/13 07:28:21;;;;;;;4.40;2.40;;;;;;;22.50;100.00;99679.63;4956590;28;20068;-88
2023/09/13 07:30:46;;;;;;;1.40;1.30;;;;;;;22.79;100.00;99690.16;4973112;28;20509;-88
2023/09/13 07:33:12;;;;;;;1.80;1.52;;;;;;;23.13;100.00;99682.09;4971012;28;20120;-88
2023/09/13 07:35:37;;;;;;;1.48;1.38;;;;;;;23.15;100.00;99683.06;4936807;28;20049;-88
2023/09/13 07:38:03;;;;;;;1.83;1.60;;;;;;;23.27;100.00;99683.69;4947408;28;20622;-88
2023/09/13 07:40:29;;;;;;;3.78;2.53;;;;;;;23.29;100.00;99680.34;4957009;28;20057;-88
2023/09/13 07:42:54;;;;;;;2.00;1.55;;;;;;;23.44;100.00;99678.63;4972095;28;20134;-87
2023/09/13 07:45:20;;;;;;;1.80;1.70;;;;;;;23.47;100.00;99677.53;4988534;28;20035;-88
2023/09/13 07:47:45;;;;;;;2.30;1.77;;;;;;;23.46;100.00;99675.25;4952387;28;20414;-88
2023/09/13 07:50:46;;;;;;;3.58;2.38;;;;;;;23.73;100.00;99687.50;4969722;28;20482;-88
2023/09/13 07:53:12;;;;;;;1.63;1.52;;;;;;;23.87;100.00;99675.69;4932053;29;20443;-88
2023/09/13 07:55:39;;;;;;;1.98;1.83;;;;;;;24.12;100.00;99693.34;4980032;28;20133;-88
2023/09/13 07:58:08;;;;;;;1.25;1.00;;;;;;;24.33;100.00;99682.22;4972148;28;20038;-88
2023/09/13 08:00:34;;;;;;;0.90;0.90;;;;;;;24.52;100.00;99688.59;4971928;28;20081;-88
2023/09/13 08:03:00;;;;;;;3.92;2.35;;;;;;;24.90;100.00;99695.66;4954700;28;20078;-88
2023/09/13 08:05:26;;;;;;;1.80;1.67;;;;;;;25.23;99.12;99699.16;4950702;28;20047;-89
2023/09/13 08:07:52;;;;;;;1.63;1.48;;;;;;;25.23;95.93;99710.50;4971631;28;20042;-86
2023/09/13 08:10:18;;;;;;;2.25;2.05;;;;;;;25.51;95.34;99707.84;4972867;28;20040;-89
2023/09/13 08:12:43;;;;;;;0.85;0.80;;;;;;;25.60;91.93;99703.84;4971805;28;20039;-89
2023/09/13 08:15:09;;;;;;;0.82;0.82;;;;;;;25.96;89.49;99705.56;4988632;28;20034;-88
2023/09/13 08:17:35;;;;;;;0.85;0.85;;;;;;;25.75;88.92;99682.06;4971415;28;20499;-88
2023/09/13 08:20:01;;;;;;;3.28;1.48;;;;;;;25.62;91.50;99712.56;4986958;28;20431;-88
2023/09/13 08:22:27;;;;;;;2.53;2.33;;;;;;;25.61;92.73;99694.75;4971138;28;20049;-88
2023/09/13 08:24:53;;;;;;;3.10;1.95;;;;;;;25.93;91.64;99698.16;4955742;28;20035;-89
2023/09/13 08:27:19;;;;;;;2.05;1.77;;;;;;;26.26;88.10;99698.69;4972521;28;20039;-89
2023/09/13 08:29:44;;;;;;;4.25;2.55;;;;;;;26.48;86.69;99715.22;4952983;28;20113;-89
2023/09/13 08:32:10;;;;;;;1.80;1.60;;;;;;;26.51;85.55;99722.63;4928851;28;20047;-89
2023/09/13 08:34:35;;;;;;;5.85;1.60;;;;;;;26.73;83.69;99713.53;4964725;28;20105;-89
2023/09/13 08:37:02;;;;;;;3.47;2.58;;;;;;;26.13;86.71;99704.41;4971701;28;20042;-88
2023/09/13 08:39:28;;;;;;;3.28;1.88;;;;;;;25.96;90.60;99711.25;4955416;28;20134;-89
2023/09/13 08:41:55;;;;;;;1.63;1.52;;;;;;;26.38;88.57;99717.00;4951143;28;20471;-89
2023/09/13 08:44:21;;;;;;;4.53;2.42;;;;;;;26.42;88.99;99714.59;4948287;28;20045;-88
2023/09/13 08:46:49;;;;;;;1.77;1.55;;;;;;;26.61;83.85;99715.13;4971356;28;20030;-89
2023/09/13 08:49:16;;;;;;;4.25;3.60;;;;;;;26.89;82.51;99705.91;4969769;28;20097;-89
2023/09/13 08:51:44;;;;;;;1.38;1.30;;;;;;;27.44;80.25;99726.34;4939994;28;20097;-89
2023/09/13 08:54:10;;;;;;;1.25;1.15;;;;;;;27.71;77.82;99733.34;4955195;28;20035;-89
2023/09/13 08:56:36;;;;;;;2.47;1.67;;;;;;;27.23;77.55;99703.66;4972234;28;20070;-89
2023/09/13 08:59:02;;;;;;;2.08;1.88;;;;;;;27.65;75.96;99709.97;4958125;28;20065;-88
2023/09/13 09:01:28;;;;;;;2.75;2.42;;;;;;;27.96;75.11;99724.31;4975408;28;20049;-89
2023/09/13 09:03:54;;;;;;;2.47;2.05;;;;;;;27.77;74.64;99716.84;4974117;28;20034;-89
2023/09/13 09:06:20;;;;;;;2.38;2.10;;;;;;;27.31;76.08;99707.31;4975147;28;20121;-88
2023/09/13 09:08:48;;;;;;;1.13;1.05;;;;;;;26.79;81.65;99705.63;4942347;28;20125;-89
2023/09/13 09:11:14;;;;;;;2.08;1.88;;;;;;;26.43;85.00;99711.19;4975552;28;20038;-88
2023/09/13 09:13:40;;;;;;;2.42;2.05;;;;;;;26.48;87.65;99715.22;4974503;28;20113;-88
2023/09/13 09:16:07;;;;;;;1.55;1.27;;;;;;;26.38;86.55;99697.09;4975358;28;20048;-88
2023/09/13 09:18:35;;;;;;;2.08;1.88;;;;;;;26.65;88.90;99712.69;4973354;28;20053;-88
2023/09/13 09:21:02;;;;;;;5.68;1.55;;;;;;;26.84;88.24;99715.34;4959040;28;20042;-89
2023/09/13 09:23:28;;;;;;;1.83;1.63;;;;;;;27.37;84.52;99721.41;4974557;28;20545;-88
2023/09/13 09:25:54;;;;;;;2.85;2.10;;;;;;;27.51;80.78;99731.34;4959054;28;20047;-88
2023/09/13 09:28:20;;;;;;;5.50;2.35;;;;;;;27.25;83.49;99723.78;4958087;28;20081;-89
2023/09/13 09:30:46;;;;;;;2.03;1.80;;;;;;;27.67;78.20;99715.84;4990160;28;20038;-88
2023/09/13 09:33:13;;;;;;;2.20;1.55;;;;;;;27.41;78.86;99721.78;4972405;28;20437;-88
2023/09/13 09:35:39;;;;;;;1.52;1.42;;;;;;;27.59;80.38;99715.06;4939034;28;20499;-88
2023/09/13 09:38:20;;;;;;;1.20;1.10;;;;;;;27.45;79.46;99719.34;4967860;28;20062;-88
2023/09/13 09:40:46;;;;;;;2.65;2.20;;;;;;;27.64;78.96;99722.69;4943101;28;20074;-88
2023/09/13 09:43:11;;;;;;;2.00;1.45;;;;;;;27.62;81.15;99722.47;4958276;28;20077;-88
2023/09/13 09:45:37;;;;;;;2.33;1.52;;;;;;;27.76;80.66;99718.16;4974117;28;20077;-88
2023/09/13 09:48:03;;;;;;;2.22;2.00;;;;;;;27.75;79.65;99719.50;4990544;28;20046;-88
2023/09/13 09:50:31;;;;;;;1.48;1.35;;;;;;;28.01;79.36;99720.53;4974424;28;20042;-88
2023/09/13 09:52:57;;;;;;;1.42;1.33;;;;;;;28.36;75.72;99713.97;4974231;28;20030;-89
2023/09/13 09:55:25;;;;;;;2.22;1.65;;;;;;;28.70;73.50;99699.38;4974003;28;20042;-88
2023/09/13 09:57:52;;;;;;;1.52;1.42;;;;;;;28.90;70.50;99706.97;4974294;28;20433;-89
2023/09/13 10:00:18;;;;;;;2.20;1.95;;;;;;;28.97;70.30;99722.56;4974194;28;20050;-89
2023/09/13 10:02:44;;;;;;;1.50;1.40;;;;;;;28.95;67.97;99719.53;4973031;28;20042;-88
2023/09/13 10:05:13;;;;;;;4.30;3.38;;;;;;;29.24;69.03;99712.22;4974365;28;20066;-88
2023/09/13 10:07:42;;;;;;;2.65;2.45;;;;;;;28.95;69.44;99708.09;4941824;28;20065;-89
2023/09/13 10:10:09;;;;;;;1.88;1.38;;;;;;;28.64;70.26;99673.84;4956082;28;20116;-88
2023/09/13 10:12:50;;;;;;;2.13;1.77;;;;;;;28.73;70.92;99707.56;4938883;28;20038;-89
2023/09/13 10:15:18;;;;;;;1.75;1.60;;;;;;;29.14;70.76;99694.16;4958599;28;20046;-89
2023/09/13 10:17:44;;;;;;;2.70;1.42;;;;;;;29.37;67.54;99691.25;4941875;28;20502;-89
2023/09/13 10:20:12;;;;;;;2.55;2.35;;;;;;;29.16;65.55;99697.97;4956815;28;20050;-89
2023/09/13 10:22:39;;;;;;;3.30;1.88;;;;;;;28.52;69.18;99695.53;4957762;28;20054;-89
2023/09/13 10:25:07;;;;;;;2.60;1.85;;;;;;;28.26;72.22;99684.50;4990238;28;20061;-89
2023/09/13 10:27:34;;;;;;;2.85;2.30;;;;;;;28.30;73.42;99696.28;4958282;28;20529;-88
2023/09/13 10:30:03;;;;;;;2.78;1.88;;;;;;;28.60;73.39;99690.59;4972148;28;20035;-88
2023/09/13 10:32:45;;;;;;;4.65;2.90;;;;;;;28.83;72.51;99684.91;4944178;28;20046;-89
2023/09/13 10:35:11;;;;;;;2.65;2.10;;;;;;;29.19;71.04;99688.25;4985388;28;20129;-88
2023/09/13 10:37:49;;;;;;;2.03;1.83;;;;;;;29.38;68.58;99698.50;4973779;28;20585;-89
2023/09/13 10:40:20;;;;;;;1.85;1.67;;;;;;;29.86;66.87;99687.81;4973388;28;20046;-88
2023/09/13 10:42:46;;;;;;;1.77;1.65;;;;;;;29.49;64.13;99687.41;4936769;28;20045;-89
2023/09/13 10:45:18;;;;;;;2.25;1.80;;;;;;;29.80;64.78;99687.28;4954755;28;20042;-89
2023/09/13 10:47:45;;;;;;;2.35;2.17;;;;;;;29.81;64.58;99694.50;4944918;28;20078;-89
2023/09/13 10:50:10;;;;;;;0.57;0.57;;;;;;;29.91;63.43;99695.44;4972136;28;20034;-88
2023/09/13 10:52:36;;;;;;;2.42;2.22;;;;;;;29.62;65.00;99700.69;4972593;28;20048;-89
2023/09/13 10:55:06;;;;;;;1.85;1.70;;;;;;;29.29;66.98;99691.28;4973287;28;20046;-88
2023/09/13 10:57:32;;;;;;;2.92;1.42;;;;;;;29.45;67.76;99692.75;4938481;28;20045;-89
2023/09/13 10:59:59;;;;;;;3.08;2.33;;;;;;;29.45;65.74;99698.47;4957068;28;20058;-88
2023/09/13 11:02:25;;;;;;;9.20;2.80;;;;;;;28.89;69.83;99693.25;4956193;28;20027;-89
2023/09/13 11:04:51;;;;;;;2.75;2.45;;;;;;;28.72;70.84;99703.16;4939820;28;20050;-89
2023/09/13 11:07:17;;;;;;;3.22;2.53;;;;;;;28.63;72.10;99705.81;4972676;28;20108;-89
2023/09/13 11:09:43;;;;;;;2.63;1.90;;;;;;;28.41;75.39;99715.13;4957258;28;20050;-89
2023/09/13 11:12:11;;;;;;;2.28;1.92;;;;;;;28.67;73.87;99715.50;4973240;28;20049;-89
2023/09/13 11:14:37;;;;;;;1.95;1.55;;;;;;;28.99;70.06;99708.47;4953099;28;20411;-88
2023/09/13 11:17:11;;;;;;;1.83;1.73;;;;;;;29.22;68.34;99706.34;4967582;28;20043;-88
2023/09/13 11:19:36;;;;;;;2.25;2.05;;;;;;;29.31;67.89;99710.72;4951956;28;20454;-88
2023/09/13 11:22:03;;;;;;;2.80;1.98;;;;;;;29.62;67.50;99707.19;4983702;28;20043;-89
2023/09/13 11:24:45;;;;;;;1.92;1.55;;;;;;;29.65;65.49;99686.00;4957130;28;20090;-89